sensor_id;sensor_type;location;lat;lon;timestamp;P1;durP1;ratioP1;P2;durP2;ratioP2
53505;SDS011;39388;50.936;6.848;2023-02-28T00:00:43;5.50;;;3.90;;
53505;SDS011;39388;50.936;6.848;2023-02-28T00:03:13;4.00;;;3.67;;
53505;SDS011;39388;50.936;6.848;2023-02-28T00:05:44;3.38;;;3.10;;
53505;SDS011;39388;50.936;6.848;2023-02-28T00:08:14;5.70;;;3.70;;
53505;SDS011;39388;50.936;6.848;2023-02-28T00:10:44;3.65;;;3.38;;
53505;SDS011;39388;50.936;6.848;2023-02-28T00:13:15;5.43;;;4.10;;
53505;SDS011;39388;50.936;6.848;2023-02-28T00:15:46;4.07;;;3.60;;
53505;SDS011;39388;50.936;6.848;2023-02-28T00:18:16;3.88;;;3.53;;
53505;SDS011;39388;50.936;6.848;2023-02-28T00:20:47;4.60;;;4.20;;
53505;SDS011;39388;50.936;6.848;2023-02-28T00:23:17;4.47;;;3.72;;
53505;SDS011;39388;50.936;6.848;2023-02-28T00:25:48;4.30;;;4.00;;
53505;SDS011;39388;50.936;6.848;2023-02-28T00:28:18;4.13;;;3.80;;
53505;SDS011;39388;50.936;6.848;2023-02-28T00:30:49;4.45;;;3.83;;
53505;SDS011;39388;50.936;6.848;2023-02-28T00:33:20;5.43;;;3.88;;
53505;SDS011;39388;50.936;6.848;2023-02-28T00:35:50;4.50;;;3.88;;
53505;SDS011;39388;50.936;6.848;2023-02-28T00:38:20;4.20;;;3.80;;
53505;SDS011;39388;50.936;6.848;2023-02-28T00:40:51;5.05;;;3.60;;
53505;SDS011;39388;50.936;6.848;2023-02-28T00:43:21;4.00;;;3.70;;
53505;SDS011;39388;50.936;6.848;2023-02-28T00:45:51;4.20;;;3.80;;
53505;SDS011;39388;50.936;6.848;2023-02-28T00:48:22;4.85;;;3.92;;
53505;SDS011;39388;50.936;6.848;2023-02-28T00:50:52;4.93;;;3.50;;
53505;SDS011;39388;50.936;6.848;2023-02-28T00:53:22;4.68;;;3.90;;
53505;SDS011;39388;50.936;6.848;2023-02-28T00:55:53;4.00;;;3.70;;
53505;SDS011;39388;50.936;6.848;2023-02-28T00:58:23;4.00;;;3.60;;
53505;SDS011;39388;50.936;6.848;2023-02-28T01:00:54;4.43;;;4.03;;
53505;SDS011;39388;50.936;6.848;2023-02-28T01:03:25;4.30;;;3.90;;
53505;SDS011;39388;50.936;6.848;2023-02-28T01:05:55;3.85;;;3.55;;
53505;SDS011;39388;50.936;6.848;2023-02-28T01:08:26;4.38;;;3.60;;
53505;SDS011;39388;50.936;6.848;2023-02-28T01:10:56;3.80;;;3.50;;
53505;SDS011;39388;50.936;6.848;2023-02-28T01:13:27;4.25;;;3.88;;
53505;SDS011;39388;50.936;6.848;2023-02-28T01:15:57;3.92;;;3.63;;
53505;SDS011;39388;50.936;6.848;2023-02-28T01:18:27;4.13;;;3.83;;
53505;SDS011;39388;50.936;6.848;2023-02-28T01:21:02;4.50;;;4.10;;
53505;SDS011;39388;50.936;6.848;2023-02-28T01:23:33;4.30;;;3.90;;
53505;SDS011;39388;50.936;6.848;2023-02-28T01:26:08;4.13;;;3.78;;
53505;SDS011;39388;50.936;6.848;2023-02-28T01:28:41;4.30;;;3.75;;
53505;SDS011;39388;50.936;6.848;2023-02-28T01:31:12;4.10;;;3.80;;
53505;SDS011;39388;50.936;6.848;2023-02-28T01:33:43;4.25;;;3.95;;
53505;SDS011;39388;50.936;6.848;2023-02-28T01:36:15;4.10;;;3.80;;
53505;SDS011;39388;50.936;6.848;2023-02-28T01:38:48;4.20;;;3.90;;
53505;SDS011;39388;50.936;6.848;2023-02-28T01:41:29;4.10;;;3.70;;
53505;SDS011;39388;50.936;6.848;2023-02-28T01:46:34;4.07;;;3.70;;
53505;SDS011;39388;50.936;6.848;2023-02-28T01:49:09;4.30;;;3.90;;
53505;SDS011;39388;50.936;6.848;2023-02-28T01:51:51;4.10;;;3.70;;
53505;SDS011;39388;50.936;6.848;2023-02-28T01:54:29;4.80;;;4.00;;
53505;SDS011;39388;50.936;6.848;2023-02-28T01:57:03;4.40;;;4.00;;
53505;SDS011;39388;50.936;6.848;2023-02-28T01:59:40;4.18;;;3.72;;
53505;SDS011;39388;50.936;6.848;2023-02-28T02:02:17;4.28;;;3.90;;
53505;SDS011;39388;50.936;6.848;2023-02-28T02:05:02;4.60;;;4.18;;
53505;SDS011;39388;50.936;6.848;2023-02-28T02:07:42;4.57;;;3.75;;
53505;SDS011;39388;50.936;6.848;2023-02-28T02:10:16;8.05;;;4.03;;
53505;SDS011;39388;50.936;6.848;2023-02-28T02:13:03;4.72;;;4.32;;
53505;SDS011;39388;50.936;6.848;2023-02-28T02:36:01;4.43;;;4.03;;
53505;SDS011;39388;50.936;6.848;2023-02-28T02:38:46;4.53;;;4.10;;
53505;SDS011;39388;50.936;6.848;2023-02-28T02:44:23;4.40;;;4.00;;
53505;SDS011;39388;50.936;6.848;2023-02-28T02:49:38;3.97;;;3.60;;
53505;SDS011;39388;50.936;6.848;2023-02-28T02:52:13;4.00;;;3.70;;
53505;SDS011;39388;50.936;6.848;2023-02-28T02:54:46;4.97;;;4.03;;
53505;SDS011;39388;50.936;6.848;2023-02-28T02:57:23;4.20;;;3.90;;
53505;SDS011;39388;50.936;6.848;2023-02-28T02:59:59;4.22;;;3.85;;
53505;SDS011;39388;50.936;6.848;2023-02-28T03:02:31;4.20;;;3.90;;
53505;SDS011;39388;50.936;6.848;2023-02-28T03:06:04;4.10;;;3.80;;
53505;SDS011;39388;50.936;6.848;2023-02-28T03:08:14;4.90;;;4.00;;
53505;SDS011;39388;50.936;6.848;2023-02-28T03:10:46;4.10;;;3.80;;
53505;SDS011;39388;50.936;6.848;2023-02-28T03:21:35;4.07;;;3.65;;
53505;SDS011;39388;50.936;6.848;2023-02-28T03:27:16;5.03;;;3.90;;
53505;SDS011;39388;50.936;6.848;2023-02-28T03:30:02;4.63;;;4.22;;
53505;SDS011;39388;50.936;6.848;2023-02-28T03:35:08;4.15;;;3.85;;
53505;SDS011;39388;50.936;6.848;2023-02-28T03:37:42;4.10;;;3.80;;
53505;SDS011;39388;50.936;6.848;2023-02-28T03:40:15;4.32;;;3.92;;
53505;SDS011;39388;50.936;6.848;2023-02-28T03:42:50;4.00;;;3.70;;
53505;SDS011;39388;50.936;6.848;2023-02-28T03:45:30;4.30;;;4.00;;
53505;SDS011;39388;50.936;6.848;2023-02-28T03:50:41;4.18;;;3.85;;
53505;SDS011;39388;50.936;6.848;2023-02-28T03:53:16;4.35;;;4.05;;
53505;SDS011;39388;50.936;6.848;2023-02-28T03:55:59;4.18;;;3.88;;
53505;SDS011;39388;50.936;6.848;2023-02-28T03:58:44;4.25;;;3.90;;
53505;SDS011;39388;50.936;6.848;2023-02-28T04:01:28;5.38;;;4.97;;
53505;SDS011;39388;50.936;6.848;2023-02-28T04:04:00;4.10;;;3.80;;
53505;SDS011;39388;50.936;6.848;2023-02-28T04:06:32;4.10;;;3.80;;
53505;SDS011;39388;50.936;6.848;2023-02-28T04:09:04;4.53;;;4.13;;
53505;SDS011;39388;50.936;6.848;2023-02-28T04:11:36;4.28;;;3.92;;
53505;SDS011;39388;50.936;6.848;2023-02-28T04:14:11;4.63;;;4.22;;
53505;SDS011;39388;50.936;6.848;2023-02-28T04:16:42;4.28;;;3.88;;
53505;SDS011;39388;50.936;6.848;2023-02-28T04:19:13;4.80;;;4.40;;
53505;SDS011;39388;50.936;6.848;2023-02-28T04:21:45;4.55;;;4.25;;
53505;SDS011;39388;50.936;6.848;2023-02-28T04:26:53;4.80;;;4.32;;
53505;SDS011;39388;50.936;6.848;2023-02-28T04:29:26;4.75;;;4.38;;
53505;SDS011;39388;50.936;6.848;2023-02-28T04:31:58;5.15;;;4.75;;
53505;SDS011;39388;50.936;6.848;2023-02-28T04:34:29;4.80;;;4.40;;
53505;SDS011;39388;50.936;6.848;2023-02-28T04:37:01;4.73;;;4.33;;
53505;SDS011;39388;50.936;6.848;2023-02-28T04:39:34;4.85;;;4.45;;
53505;SDS011;39388;50.936;6.848;2023-02-28T04:42:06;5.22;;;4.72;;
53505;SDS011;39388;50.936;6.848;2023-02-28T04:44:37;5.18;;;4.68;;
53505;SDS011;39388;50.936;6.848;2023-02-28T04:47:07;5.05;;;4.65;;
53505;SDS011;39388;50.936;6.848;2023-02-28T04:49:38;5.97;;;4.68;;
53505;SDS011;39388;50.936;6.848;2023-02-28T04:52:08;4.50;;;4.10;;
53505;SDS011;39388;50.936;6.848;2023-02-28T04:54:40;4.95;;;4.55;;
53505;SDS011;39388;50.936;6.848;2023-02-28T04:57:10;8.75;;;4.38;;
53505;SDS011;39388;50.936;6.848;2023-02-28T04:59:40;4.60;;;4.22;;
53505;SDS011;39388;50.936;6.848;2023-02-28T05:02:11;5.13;;;4.63;;
53505;SDS011;39388;50.936;6.848;2023-02-28T05:04:41;5.60;;;4.43;;
53505;SDS011;39388;50.936;6.848;2023-02-28T05:07:11;5.85;;;4.78;;
53505;SDS011;39388;50.936;6.848;2023-02-28T05:09:42;5.35;;;4.50;;
53505;SDS011;39388;50.936;6.848;2023-02-28T05:12:12;4.85;;;4.45;;
53505;SDS011;39388;50.936;6.848;2023-02-28T05:14:43;4.70;;;4.30;;
53505;SDS011;39388;50.936;6.848;2023-02-28T05:17:14;4.80;;;4.40;;
53505;SDS011;39388;50.936;6.848;2023-02-28T05:19:44;5.72;;;4.70;;
53505;SDS011;39388;50.936;6.848;2023-02-28T05:22:14;4.78;;;4.38;;
53505;SDS011;39388;50.936;6.848;2023-02-28T05:24:48;5.13;;;4.40;;
53505;SDS011;39388;50.936;6.848;2023-02-28T05:27:19;5.50;;;5.00;;
53505;SDS011;39388;50.936;6.848;2023-02-28T05:29:49;5.60;;;5.10;;
53505;SDS011;39388;50.936;6.848;2023-02-28T05:32:19;5.15;;;4.65;;
53505;SDS011;39388;50.936;6.848;2023-02-28T05:34:50;5.45;;;4.47;;
53505;SDS011;39388;50.936;6.848;2023-02-28T05:37:20;4.97;;;4.50;;
53505;SDS011;39388;50.936;6.848;2023-02-28T05:39:51;5.18;;;4.68;;
53505;SDS011;39388;50.936;6.848;2023-02-28T05:42:21;5.28;;;4.20;;
53505;SDS011;39388;50.936;6.848;2023-02-28T05:44:51;5.03;;;4.60;;
53505;SDS011;39388;50.936;6.848;2023-02-28T05:47:22;5.38;;;4.88;;
53505;SDS011;39388;50.936;6.848;2023-02-28T05:49:52;5.40;;;4.90;;
53505;SDS011;39388;50.936;6.848;2023-02-28T05:52:22;4.55;;;4.22;;
53505;SDS011;39388;50.936;6.848;2023-02-28T05:54:53;4.90;;;4.50;;
53505;SDS011;39388;50.936;6.848;2023-02-28T05:57:23;4.90;;;4.50;;
53505;SDS011;39388;50.936;6.848;2023-02-28T05:59:54;5.70;;;5.10;;
53505;SDS011;39388;50.936;6.848;2023-02-28T06:02:24;5.13;;;4.70;;
53505;SDS011;39388;50.936;6.848;2023-02-28T06:04:55;4.93;;;4.60;;
53505;SDS011;39388;50.936;6.848;2023-02-28T06:07:25;5.00;;;4.60;;
53505;SDS011;39388;50.936;6.848;2023-02-28T06:09:55;5.03;;;4.63;;
53505;SDS011;39388;50.936;6.848;2023-02-28T06:12:26;5.72;;;5.15;;
53505;SDS011;39388;50.936;6.848;2023-02-28T06:14:56;4.95;;;4.43;;
53505;SDS011;39388;50.936;6.848;2023-02-28T06:17:26;4.80;;;4.40;;
53505;SDS011;39388;50.936;6.848;2023-02-28T06:19:57;5.00;;;4.60;;
53505;SDS011;39388;50.936;6.848;2023-02-28T06:22:27;7.10;;;5.18;;
53505;SDS011;39388;50.936;6.848;2023-02-28T06:24:57;4.68;;;4.28;;
53505;SDS011;39388;50.936;6.848;2023-02-28T06:27:28;5.07;;;4.57;;
53505;SDS011;39388;50.936;6.848;2023-02-28T06:29:58;5.13;;;4.57;;
53505;SDS011;39388;50.936;6.848;2023-02-28T06:32:29;6.03;;;4.53;;
53505;SDS011;39388;50.936;6.848;2023-02-28T06:34:59;4.70;;;4.30;;
53505;SDS011;39388;50.936;6.848;2023-02-28T06:37:30;5.38;;;4.60;;
53505;SDS011;39388;50.936;6.848;2023-02-28T06:40:01;5.65;;;4.68;;
53505;SDS011;39388;50.936;6.848;2023-02-28T06:42:32;4.78;;;4.32;;
53505;SDS011;39388;50.936;6.848;2023-02-28T06:45:03;4.85;;;4.38;;
53505;SDS011;39388;50.936;6.848;2023-02-28T06:47:39;4.90;;;4.50;;
53505;SDS011;39388;50.936;6.848;2023-02-28T06:50:12;4.60;;;4.22;;
53505;SDS011;39388;50.936;6.848;2023-02-28T06:52:43;4.97;;;4.47;;
53505;SDS011;39388;50.936;6.848;2023-02-28T06:55:13;5.07;;;4.45;;
53505;SDS011;39388;50.936;6.848;2023-02-28T06:57:43;4.93;;;4.45;;
53505;SDS011;39388;50.936;6.848;2023-02-28T07:00:14;4.60;;;4.20;;
53505;SDS011;39388;50.936;6.848;2023-02-28T07:02:44;5.07;;;4.68;;
53505;SDS011;39388;50.936;6.848;2023-02-28T07:05:15;3.78;;;3.50;;
53505;SDS011;39388;50.936;6.848;2023-02-28T07:07:46;4.40;;;4.10;;
53505;SDS011;39388;50.936;6.848;2023-02-28T07:10:17;5.20;;;4.55;;
53505;SDS011;39388;50.936;6.848;2023-02-28T07:12:47;4.97;;;4.40;;
53505;SDS011;39388;50.936;6.848;2023-02-28T07:15:18;4.40;;;4.00;;
53505;SDS011;39388;50.936;6.848;2023-02-28T07:17:48;3.97;;;3.70;;
53505;SDS011;39388;50.936;6.848;2023-02-28T07:20:18;4.20;;;3.90;;
53505;SDS011;39388;50.936;6.848;2023-02-28T07:22:49;4.30;;;3.90;;
53505;SDS011;39388;50.936;6.848;2023-02-28T07:25:26;4.97;;;4.25;;
53505;SDS011;39388;50.936;6.848;2023-02-28T07:27:57;4.60;;;4.20;;
53505;SDS011;39388;50.936;6.848;2023-02-28T07:30:29;4.10;;;3.80;;
53505;SDS011;39388;50.936;6.848;2023-02-28T07:32:59;4.97;;;4.57;;
53505;SDS011;39388;50.936;6.848;2023-02-28T07:35:29;4.82;;;4.30;;
53505;SDS011;39388;50.936;6.848;2023-02-28T07:38:00;4.50;;;4.10;;
53505;SDS011;39388;50.936;6.848;2023-02-28T07:40:31;3.95;;;3.65;;
53505;SDS011;39388;50.936;6.848;2023-02-28T07:43:02;4.95;;;3.97;;
53505;SDS011;39388;50.936;6.848;2023-02-28T07:45:33;4.50;;;4.10;;
53505;SDS011;39388;50.936;6.848;2023-02-28T07:48:04;4.55;;;3.70;;
53505;SDS011;39388;50.936;6.848;2023-02-28T07:50:34;4.50;;;4.03;;
53505;SDS011;39388;50.936;6.848;2023-02-28T07:53:05;4.35;;;3.95;;
53505;SDS011;39388;50.936;6.848;2023-02-28T07:55:35;4.25;;;3.95;;
53505;SDS011;39388;50.936;6.848;2023-02-28T07:58:05;4.10;;;3.80;;
53505;SDS011;39388;50.936;6.848;2023-02-28T08:00:36;3.45;;;3.25;;
53505;SDS011;39388;50.936;6.848;2023-02-28T08:03:07;4.25;;;3.85;;
53505;SDS011;39388;50.936;6.848;2023-02-28T08:05:41;3.42;;;3.22;;
53505;SDS011;39388;50.936;6.848;2023-02-28T08:08:12;4.13;;;3.83;;
53505;SDS011;39388;50.936;6.848;2023-02-28T08:10:42;3.70;;;3.40;;
53505;SDS011;39388;50.936;6.848;2023-02-28T08:13:13;3.75;;;3.53;;
53505;SDS011;39388;50.936;6.848;2023-02-28T08:15:43;4.40;;;4.10;;
53505;SDS011;39388;50.936;6.848;2023-02-28T08:18:15;4.00;;;3.70;;
53505;SDS011;39388;50.936;6.848;2023-02-28T08:20:45;4.55;;;4.25;;
53505;SDS011;39388;50.936;6.848;2023-02-28T08:23:16;4.15;;;3.83;;
53505;SDS011;39388;50.936;6.848;2023-02-28T08:25:52;4.88;;;3.70;;
53505;SDS011;39388;50.936;6.848;2023-02-28T08:28:24;3.47;;;3.20;;
53505;SDS011;39388;50.936;6.848;2023-02-28T08:30:54;3.75;;;3.45;;
53505;SDS011;39388;50.936;6.848;2023-02-28T08:33:25;3.88;;;3.58;;
53505;SDS011;39388;50.936;6.848;2023-02-28T08:35:57;3.33;;;3.07;;
53505;SDS011;39388;50.936;6.848;2023-02-28T08:38:27;4.95;;;3.50;;
53505;SDS011;39388;50.936;6.848;2023-02-28T08:40:58;3.80;;;2.97;;
53505;SDS011;39388;50.936;6.848;2023-02-28T08:43:30;3.30;;;3.10;;
53505;SDS011;39388;50.936;6.848;2023-02-28T08:46:01;3.60;;;3.35;;
53505;SDS011;39388;50.936;6.848;2023-02-28T08:48:34;3.80;;;3.50;;
53505;SDS011;39388;50.936;6.848;2023-02-28T08:51:06;3.10;;;2.90;;
53505;SDS011;39388;50.936;6.848;2023-02-28T08:53:39;3.05;;;2.85;;
53505;SDS011;39388;50.936;6.848;2023-02-28T08:56:11;2.90;;;2.80;;
53505;SDS011;39388;50.936;6.848;2023-02-28T08:58:43;3.20;;;3.00;;
53505;SDS011;39388;50.936;6.848;2023-02-28T09:01:16;3.63;;;3.42;;
53505;SDS011;39388;50.936;6.848;2023-02-28T09:03:51;3.20;;;2.90;;
53505;SDS011;39388;50.936;6.848;2023-02-28T09:06:22;2.95;;;2.75;;
53505;SDS011;39388;50.936;6.848;2023-02-28T09:08:57;3.53;;;3.05;;
53505;SDS011;39388;50.936;6.848;2023-02-28T09:11:29;2.60;;;2.50;;
53505;SDS011;39388;50.936;6.848;2023-02-28T09:14:00;3.33;;;3.03;;
53505;SDS011;39388;50.936;6.848;2023-02-28T09:16:31;2.95;;;2.78;;
53505;SDS011;39388;50.936;6.848;2023-02-28T09:19:02;3.10;;;2.90;;
53505;SDS011;39388;50.936;6.848;2023-02-28T09:21:32;3.00;;;2.80;;
53505;SDS011;39388;50.936;6.848;2023-02-28T09:24:03;3.45;;;3.05;;
53505;SDS011;39388;50.936;6.848;2023-02-28T09:26:33;4.05;;;3.08;;
53505;SDS011;39388;50.936;6.848;2023-02-28T09:29:04;3.13;;;2.70;;
53505;SDS011;39388;50.936;6.848;2023-02-28T09:31:34;4.53;;;2.80;;
53505;SDS011;39388;50.936;6.848;2023-02-28T09:34:05;2.88;;;2.67;;
53505;SDS011;39388;50.936;6.848;2023-02-28T09:36:35;2.92;;;2.72;;
53505;SDS011;39388;50.936;6.848;2023-02-28T09:39:09;2.78;;;2.58;;
53505;SDS011;39388;50.936;6.848;2023-02-28T09:41:40;2.80;;;2.65;;
53505;SDS011;39388;50.936;6.848;2023-02-28T09:47:07;2.83;;;2.63;;
53505;SDS011;39388;50.936;6.848;2023-02-28T09:49:46;2.58;;;2.47;;
53505;SDS011;39388;50.936;6.848;2023-02-28T09:52:19;3.20;;;2.90;;
53505;SDS011;39388;50.936;6.848;2023-02-28T09:54:59;2.97;;;2.78;;
53505;SDS011;39388;50.936;6.848;2023-02-28T09:57:48;2.90;;;2.70;;
53505;SDS011;39388;50.936;6.848;2023-02-28T10:00:22;4.13;;;2.72;;
53505;SDS011;39388;50.936;6.848;2023-02-28T10:03:12;3.53;;;3.22;;
53505;SDS011;39388;50.936;6.848;2023-02-28T10:08:36;2.85;;;2.65;;
53505;SDS011;39388;50.936;6.848;2023-02-28T10:11:14;3.10;;;2.90;;
53505;SDS011;39388;50.936;6.848;2023-02-28T10:20:37;3.05;;;2.85;;
53505;SDS011;39388;50.936;6.848;2023-02-28T10:22:53;2.80;;;2.60;;
53505;SDS011;39388;50.936;6.848;2023-02-28T10:25:27;2.92;;;2.72;;
53505;SDS011;39388;50.936;6.848;2023-02-28T10:28:20;2.97;;;2.78;;
53505;SDS011;39388;50.936;6.848;2023-02-28T10:30:50;2.15;;;2.05;;
53505;SDS011;39388;50.936;6.848;2023-02-28T10:33:25;3.03;;;2.70;;
53505;SDS011;39388;50.936;6.848;2023-02-28T10:36:05;2.67;;;2.47;;
53505;SDS011;39388;50.936;6.848;2023-02-28T10:38:38;2.60;;;2.40;;
53505;SDS011;39388;50.936;6.848;2023-02-28T10:41:16;2.90;;;2.70;;
53505;SDS011;39388;50.936;6.848;2023-02-28T10:44:15;2.80;;;2.60;;
53505;SDS011;39388;50.936;6.848;2023-02-28T10:46:51;3.03;;;2.83;;
53505;SDS011;39388;50.936;6.848;2023-02-28T10:51:53;2.83;;;2.63;;
53505;SDS011;39388;50.936;6.848;2023-02-28T10:54:31;2.97;;;2.70;;
53505;SDS011;39388;50.936;6.848;2023-02-28T10:57:15;3.47;;;2.78;;
53505;SDS011;39388;50.936;6.848;2023-02-28T10:59:52;2.38;;;2.28;;
53505;SDS011;39388;50.936;6.848;2023-02-28T11:02:42;3.00;;;2.80;;
53505;SDS011;39388;50.936;6.848;2023-02-28T11:05:31;2.90;;;2.70;;
53505;SDS011;39388;50.936;6.848;2023-02-28T11:08:10;3.17;;;2.88;;
53505;SDS011;39388;50.936;6.848;2023-02-28T11:10:44;2.72;;;2.58;;
53505;SDS011;39388;50.936;6.848;2023-02-28T11:13:17;2.92;;;2.50;;
53505;SDS011;39388;50.936;6.848;2023-02-28T11:15:51;3.00;;;2.80;;
53505;SDS011;39388;50.936;6.848;2023-02-28T11:21:16;2.92;;;2.70;;
53505;SDS011;39388;50.936;6.848;2023-02-28T11:23:51;3.17;;;2.88;;
53505;SDS011;39388;50.936;6.848;2023-02-28T11:26:36;2.70;;;2.50;;
53505;SDS011;39388;50.936;6.848;2023-02-28T11:29:11;3.00;;;2.80;;
53505;SDS011;39388;50.936;6.848;2023-02-28T11:34:43;3.03;;;2.83;;
53505;SDS011;39388;50.936;6.848;2023-02-28T11:37:16;3.95;;;2.88;;
53505;SDS011;39388;50.936;6.848;2023-02-28T11:39:49;3.15;;;2.85;;
53505;SDS011;39388;50.936;6.848;2023-02-28T11:45:19;3.63;;;2.83;;
53505;SDS011;39388;50.936;6.848;2023-02-28T11:48:14;2.92;;;2.72;;
53505;SDS011;39388;50.936;6.848;2023-02-28T11:54:09;3.33;;;3.05;;
53505;SDS011;39388;50.936;6.848;2023-02-28T11:56:58;3.58;;;2.80;;
53505;SDS011;39388;50.936;6.848;2023-02-28T12:05:17;3.17;;;2.97;;
53505;SDS011;39388;50.936;6.848;2023-02-28T12:19:22;3.47;;;3.17;;
53505;SDS011;39388;50.936;6.848;2023-02-28T12:27:41;3.25;;;3.00;;
53505;SDS011;39388;50.936;6.848;2023-02-28T12:30:33;3.15;;;2.90;;
53505;SDS011;39388;50.936;6.848;2023-02-28T12:33:14;4.45;;;3.03;;
53505;SDS011;39388;50.936;6.848;2023-02-28T12:35:57;3.00;;;2.80;;
53505;SDS011;39388;50.936;6.848;2023-02-28T12:38:34;3.20;;;2.90;;
53505;SDS011;39388;50.936;6.848;2023-02-28T12:44:05;2.75;;;2.53;;
53505;SDS011;39388;50.936;6.848;2023-02-28T12:46:42;3.13;;;2.83;;
53505;SDS011;39388;50.936;6.848;2023-02-28T12:49:23;3.08;;;2.60;;
53505;SDS011;39388;50.936;6.848;2023-02-28T12:52:01;3.92;;;2.90;;
53505;SDS011;39388;50.936;6.848;2023-02-28T12:57:39;3.70;;;3.40;;
53505;SDS011;39388;50.936;6.848;2023-02-28T13:00:15;3.20;;;2.90;;
53505;SDS011;39388;50.936;6.848;2023-02-28T13:14:03;2.70;;;2.50;;
53505;SDS011;39388;50.936;6.848;2023-02-28T13:19:32;3.40;;;3.10;;
53505;SDS011;39388;50.936;6.848;2023-02-28T13:22:04;2.70;;;2.50;;
53505;SDS011;39388;50.936;6.848;2023-02-28T13:27:52;3.55;;;3.25;;
53505;SDS011;39388;50.936;6.848;2023-02-28T13:38:52;4.28;;;2.83;;
53505;SDS011;39388;50.936;6.848;2023-02-28T13:52:00;5.30;;;3.20;;
53505;SDS011;39388;50.936;6.848;2023-02-28T13:54:34;4.03;;;3.60;;
53505;SDS011;39388;50.936;6.848;2023-02-28T14:05:35;4.57;;;3.75;;
53505;SDS011;39388;50.936;6.848;2023-02-28T14:08:22;3.30;;;3.00;;
53505;SDS011;39388;50.936;6.848;2023-02-28T14:11:02;4.18;;;3.53;;
53505;SDS011;39388;50.936;6.848;2023-02-28T14:16:15;5.30;;;3.25;;
53505;SDS011;39388;50.936;6.848;2023-02-28T14:18:57;2.83;;;2.63;;
53505;SDS011;39388;50.936;6.848;2023-02-28T14:24:59;3.97;;;3.15;;
53505;SDS011;39388;50.936;6.848;2023-02-28T14:28:13;4.03;;;3.47;;
53505;SDS011;39388;50.936;6.848;2023-02-28T14:36:19;4.15;;;2.97;;
53505;SDS011;39388;50.936;6.848;2023-02-28T14:38:56;3.10;;;2.90;;
53505;SDS011;39388;50.936;6.848;2023-02-28T14:41:29;4.07;;;3.10;;
53505;SDS011;39388;50.936;6.848;2023-02-28T14:44:01;3.33;;;3.13;;
53505;SDS011;39388;50.936;6.848;2023-02-28T14:46:39;3.80;;;3.50;;
53505;SDS011;39388;50.936;6.848;2023-02-28T14:49:34;3.63;;;3.25;;
53505;SDS011;39388;50.936;6.848;2023-02-28T14:54:39;3.50;;;3.20;;
53505;SDS011;39388;50.936;6.848;2023-02-28T14:57:24;3.75;;;3.20;;
53505;SDS011;39388;50.936;6.848;2023-02-28T15:00:03;3.80;;;3.10;;
53505;SDS011;39388;50.936;6.848;2023-02-28T15:02:42;3.80;;;3.40;;
53505;SDS011;39388;50.936;6.848;2023-02-28T15:05:33;3.78;;;3.10;;
53505;SDS011;39388;50.936;6.848;2023-02-28T15:08:11;3.65;;;3.22;;
53505;SDS011;39388;50.936;6.848;2023-02-28T15:11:21;3.63;;;3.33;;
53505;SDS011;39388;50.936;6.848;2023-02-28T15:13:52;3.83;;;3.30;;
53505;SDS011;39388;50.936;6.848;2023-02-28T15:16:44;4.03;;;3.42;;
53505;SDS011;39388;50.936;6.848;2023-02-28T15:19:26;4.03;;;3.42;;
53505;SDS011;39388;50.936;6.848;2023-02-28T15:49:39;3.85;;;3.45;;
53505;SDS011;39388;50.936;6.848;2023-02-28T15:52:21;3.95;;;3.17;;
53505;SDS011;39388;50.936;6.848;2023-02-28T15:54:58;3.60;;;3.30;;
53505;SDS011;39388;50.936;6.848;2023-02-28T15:57:29;4.00;;;3.70;;
53505;SDS011;39388;50.936;6.848;2023-02-28T16:00:00;4.28;;;3.50;;
53505;SDS011;39388;50.936;6.848;2023-02-28T16:02:35;4.70;;;3.47;;
53505;SDS011;39388;50.936;6.848;2023-02-28T16:07:41;3.78;;;3.47;;
53505;SDS011;39388;50.936;6.848;2023-02-28T16:10:13;3.97;;;3.20;;
53505;SDS011;39388;50.936;6.848;2023-02-28T16:12:44;3.28;;;2.97;;
53505;SDS011;39388;50.936;6.848;2023-02-28T16:15:22;3.90;;;3.50;;
53505;SDS011;39388;50.936;6.848;2023-02-28T16:17:56;4.95;;;3.17;;
53505;SDS011;39388;50.936;6.848;2023-02-28T16:20:28;3.30;;;3.00;;
53505;SDS011;39388;50.936;6.848;2023-02-28T16:23:00;3.92;;;3.60;;
53505;SDS011;39388;50.936;6.848;2023-02-28T16:25:36;4.35;;;3.42;;
53505;SDS011;39388;50.936;6.848;2023-02-28T16:28:12;4.03;;;3.42;;
53505;SDS011;39388;50.936;6.848;2023-02-28T16:30:52;3.58;;;3.28;;
53505;SDS011;39388;50.936;6.848;2023-02-28T16:33:23;4.00;;;3.60;;
53505;SDS011;39388;50.936;6.848;2023-02-28T16:35:53;3.42;;;3.13;;
53505;SDS011;39388;50.936;6.848;2023-02-28T16:38:23;4.40;;;3.55;;
53505;SDS011;39388;50.936;6.848;2023-02-28T16:40:55;3.90;;;3.20;;
53505;SDS011;39388;50.936;6.848;2023-02-28T16:43:28;3.50;;;3.20;;
53505;SDS011;39388;50.936;6.848;2023-02-28T16:45:59;3.67;;;3.33;;
53505;SDS011;39388;50.936;6.848;2023-02-28T16:48:31;3.50;;;3.20;;
53505;SDS011;39388;50.936;6.848;2023-02-28T16:51:01;3.65;;;3.20;;
53505;SDS011;39388;50.936;6.848;2023-02-28T16:53:34;4.05;;;3.30;;
53505;SDS011;39388;50.936;6.848;2023-02-28T16:56:04;3.72;;;3.28;;
53505;SDS011;39388;50.936;6.848;2023-02-28T16:58:36;3.75;;;3.40;;
53505;SDS011;39388;50.936;6.848;2023-02-28T17:01:07;4.90;;;3.10;;
53505;SDS011;39388;50.936;6.848;2023-02-28T17:03:37;4.13;;;3.40;;
53505;SDS011;39388;50.936;6.848;2023-02-28T17:06:16;4.97;;;3.75;;
53505;SDS011;39388;50.936;6.848;2023-02-28T17:08:49;3.33;;;3.03;;
53505;SDS011;39388;50.936;6.848;2023-02-28T17:11:20;3.92;;;3.20;;
53505;SDS011;39388;50.936;6.848;2023-02-28T17:13:51;3.72;;;3.40;;
53505;SDS011;39388;50.936;6.848;2023-02-28T17:19:02;3.55;;;3.25;;
53505;SDS011;39388;50.936;6.848;2023-02-28T17:21:39;3.50;;;3.20;;
53505;SDS011;39388;50.936;6.848;2023-02-28T17:24:12;4.55;;;3.55;;
53505;SDS011;39388;50.936;6.848;2023-02-28T17:26:42;4.10;;;3.20;;
53505;SDS011;39388;50.936;6.848;2023-02-28T17:29:14;4.25;;;3.55;;
53505;SDS011;39388;50.936;6.848;2023-02-28T17:31:49;4.20;;;3.63;;
53505;SDS011;39388;50.936;6.848;2023-02-28T17:34:19;6.15;;;3.95;;
53505;SDS011;39388;50.936;6.848;2023-02-28T17:36:50;4.28;;;3.42;;
53505;SDS011;39388;50.936;6.848;2023-02-28T17:39:22;4.60;;;3.53;;
53505;SDS011;39388;50.936;6.848;2023-02-28T17:41:56;5.03;;;3.40;;
53505;SDS011;39388;50.936;6.848;2023-02-28T17:44:26;5.25;;;3.50;;
53505;SDS011;39388;50.936;6.848;2023-02-28T17:46:57;4.10;;;3.63;;
53505;SDS011;39388;50.936;6.848;2023-02-28T17:49:29;4.35;;;3.95;;
53505;SDS011;39388;50.936;6.848;2023-02-28T17:51:59;3.80;;;3.40;;
53505;SDS011;39388;50.936;6.848;2023-02-28T17:54:29;5.45;;;3.75;;
53505;SDS011;39388;50.936;6.848;2023-02-28T17:57:00;3.58;;;3.25;;
53505;SDS011;39388;50.936;6.848;2023-02-28T17:59:30;7.25;;;5.07;;
53505;SDS011;39388;50.936;6.848;2023-02-28T18:02:03;5.70;;;4.78;;
53505;SDS011;39388;50.936;6.848;2023-02-28T18:04:33;6.50;;;4.82;;
53505;SDS011;39388;50.936;6.848;2023-02-28T18:07:05;4.40;;;4.00;;
53505;SDS011;39388;50.936;6.848;2023-02-28T18:09:35;6.55;;;5.18;;
53505;SDS011;39388;50.936;6.848;2023-02-28T18:12:06;5.22;;;4.55;;
53505;SDS011;39388;50.936;6.848;2023-02-28T18:14:36;5.63;;;4.70;;
53505;SDS011;39388;50.936;6.848;2023-02-28T18:17:07;8.27;;;5.65;;
53505;SDS011;39388;50.936;6.848;2023-02-28T18:19:37;5.45;;;4.90;;
53505;SDS011;39388;50.936;6.848;2023-02-28T18:22:08;5.50;;;4.60;;
53505;SDS011;39388;50.936;6.848;2023-02-28T18:24:40;5.65;;;5.00;;
53505;SDS011;39388;50.936;6.848;2023-02-28T18:27:10;7.32;;;5.35;;
53505;SDS011;39388;50.936;6.848;2023-02-28T18:29:41;6.90;;;6.10;;
53505;SDS011;39388;50.936;6.848;2023-02-28T18:32:11;5.53;;;5.03;;
53505;SDS011;39388;50.936;6.848;2023-02-28T18:34:42;6.82;;;5.32;;
53505;SDS011;39388;50.936;6.848;2023-02-28T18:37:12;7.40;;;5.75;;
53505;SDS011;39388;50.936;6.848;2023-02-28T18:39:45;6.90;;;5.55;;
53505;SDS011;39388;50.936;6.848;2023-02-28T18:42:15;5.78;;;5.13;;